Time;durP1;ratioP1;P1;durP2;ratioP2;P2;SDS_P1;SDS_P2;PMS_P1;PMS_P2;Temp;Humidity;BMP_temperature;BMP_pressure;BME280_temperature;BME280_humidity;BME280_pressure;Samples;Min_cycle;Max_cycle;Signal;HPM_P1;HPM_P2
2021/05/15 00:02:18;;;;;;;2.70;2.50;;;13.80;99.90;;;;;;5043627;28;20475;-79
2021/05/15 00:05:03;;;;;;;4.23;2.03;;;13.70;99.90;;;;;;5040556;28;20465;-80
2021/05/15 00:07:44;;;;;;;4.63;2.57;;;13.50;99.90;;;;;;5042691;28;20435;-82
2021/05/15 00:10:13;;;;;;;2.30;2.10;;;13.50;99.90;;;;;;5041602;28;20475;-81
2021/05/15 00:12:57;;;;;;;2.40;2.20;;;13.50;99.90;;;;;;5040660;28;20760;-80
2021/05/15 00:15:33;;;;;;;2.53;2.33;;;13.40;99.90;;;;;;5040960;28;20480;-81
2021/05/15 00:18:20;;;;;;;3.40;2.23;;;13.30;99.90;;;;;;5042730;28;21232;-81
2021/05/15 00:20:56;;;;;;;2.43;2.23;;;13.20;99.90;;;;;;5058471;28;20436;-82
2021/05/15 00:23:39;;;;;;;3.23;2.57;;;13.20;99.90;;;;;;5040587;28;20412;-81
2021/05/15 00:26:12;;;;;;;2.80;2.40;;;13.20;99.90;;;;;;5042105;28;20498;-81
2021/05/15 00:29:10;;;;;;;2.37;2.17;;;13.20;99.90;;;;;;5043461;28;21011;-81
2021/05/15 00:31:41;;;;;;;2.67;2.47;;;13.00;99.90;;;;;;5035853;28;20440;-81
2021/05/15 00:34:30;;;;;;;2.20;2.00;;;13.20;99.90;;;;;;5037940;28;20429;-81
2021/05/15 00:37:06;;;;;;;2.57;2.10;;;13.20;99.90;;;;;;5041776;28;20464;-80
2021/05/15 00:39:37;;;;;;;2.33;2.13;;;13.20;99.90;;;;;;5042924;28;20440;-79
2021/05/15 00:42:15;;;;;;;1.90;1.80;;;13.50;99.90;;;;;;5043381;28;20525;-81
2021/05/15 00:44:49;;;;;;;2.43;1.73;;;13.40;99.90;;;;;;5056887;28;20440;-80
2021/05/15 00:47:36;;;;;;;2.30;1.70;;;13.30;99.90;;;;;;5064316;28;21036;-80
2021/05/15 00:50:22;;;;;;;2.40;2.07;;;13.20;99.90;;;;;;5049493;28;20507;-80
2021/05/15 00:52:51;;;;;;;2.07;1.80;;;13.30;99.90;;;;;;5063712;28;20444;-79
2021/05/15 00:55:33;;;;;;;2.40;2.20;;;13.30;99.90;;;;;;5070052;28;20417;-81
2021/05/15 00:58:03;;;;;;;2.17;1.80;;;13.30;99.90;;;;;;5053426;28;20468;-81
2021/05/15 01:00:49;;;;;;;2.00;1.90;;;13.30;99.90;;;;;;5043024;28;20436;-80
2021/05/15 01:03:15;;;;;;;1.90;1.60;;;13.30;99.90;;;;;;5045515;28;20433;-81
2021/05/15 01:05:49;;;;;;;2.47;1.53;;;13.10;99.90;;;;;;5042242;28;20437;-80
2021/05/15 01:08:23;;;;;;;2.10;1.60;;;13.20;99.90;;;;;;5042492;28;20995;-81
2021/05/15 01:11:17;;;;;;;2.00;1.77;;;13.20;99.90;;;;;;5041510;28;20475;-81
2021/05/15 01:14:02;;;;;;;2.10;1.57;;;13.30;99.90;;;;;;5038619;28;21013;-80
2021/05/15 01:16:39;;;;;;;3.63;3.00;;;13.30;99.90;;;;;;5038760;28;20467;-80
2021/05/15 01:19:05;;;;;;;2.10;1.90;;;13.10;99.90;;;;;;5037225;28;20433;-80
2021/05/15 01:21:44;;;;;;;1.73;1.43;;;13.20;99.90;;;;;;5037020;28;20501;-81
2021/05/15 01:24:18;;;;;;;1.63;1.53;;;13.30;99.90;;;;;;5038400;28;21709;-82
2021/05/15 01:26:55;;;;;;;1.50;1.40;;;13.40;99.60;;;;;;5040627;28;20475;-80
2021/05/15 01:29:24;;;;;;;1.70;1.60;;;13.30;99.90;;;;;;5035254;28;21104;-80
2021/05/15 01:31:53;;;;;;;1.50;1.40;;;13.20;99.90;;;;;;5052148;28;20444;-82
2021/05/15 01:34:26;;;;;;;1.90;1.80;;;13.30;99.80;;;;;;5059693;28;20511;-80
2021/05/15 01:36:56;;;;;;;1.40;1.30;;;13.20;99.80;;;;;;5041142;28;20516;-83
2021/05/15 01:39:25;;;;;;;1.17;1.07;;;13.30;99.50;;;;;;5039999;28;20436;-81
2021/05/15 01:41:56;;;;;;;2.03;1.30;;;13.30;99.30;;;;;;5040558;28;20476;-81
2021/05/15 01:44:27;;;;;;;1.40;1.30;;;13.10;99.40;;;;;;5038234;28;20446;-82
2021/05/15 01:46:53;;;;;;;1.53;1.30;;;13.30;99.50;;;;;;5038409;28;21062;-82
2021/05/15 01:49:24;;;;;;;1.63;1.53;;;13.40;99.20;;;;;;5039994;28;20451;-81
2021/05/15 01:51:53;;;;;;;1.07;1.07;;;13.30;98.80;;;;;;5037770;28;20320;-81
2021/05/15 01:54:22;;;;;;;1.50;1.40;;;13.30;99.30;;;;;;5038144;28;21097;-82
2021/05/15 01:57:26;;;;;;;;;;;;;;;;;;;;;
2021/05/15 02:00:10;;;;;;;1.20;1.10;;;13.40;99.00;;;;;;5037998;28;20436;-81
2021/05/15 02:05:55;;;;;;;1.77;1.43;;;13.50;98.90;;;;;;5030879;28;20451;-80
2021/05/15 02:08:28;;;;;;;4.20;1.50;;;13.30;99.20;;;;;;5038633;28;20432;-81
2021/05/15 02:11:01;;;;;;;1.40;1.30;;;13.20;99.60;;;;;;5040016;28;20454;-79
2021/05/15 02:13:56;;;;;;;1.50;1.40;;;13.20;99.90;;;;;;5042485;28;20464;-82
2021/05/15 02:16:35;;;;;;;3.13;1.53;;;13.20;99.90;;;;;;5042715;28;20948;-79
2021/05/15 02:19:01;;;;;;;2.27;1.43;;;13.10;99.90;;;;;;5039896;28;20443;-80
2021/05/15 02:21:39;;;;;;;1.60;1.50;;;13.10;99.90;;;;;;5039507;28;20553;-81
2021/05/15 02:24:20;;;;;;;2.13;1.80;;;13.00;99.90;;;;;;5044243;28;20948;-83
2021/05/15 02:27:08;;;;;;;2.70;1.70;;;12.90;99.90;;;;;;5043582;28;20540;-82
2021/05/15 02:29:37;;;;;;;1.50;1.40;;;13.10;99.90;;;;;;5041138;28;20489;-82
2021/05/15 02:32:19;;;;;;;1.60;1.50;;;13.10;99.90;;;;;;5040093;28;20532;-80
2021/05/15 02:34:51;;;;;;;1.90;1.57;;;13.10;99.90;;;;;;5041739;28;20532;-81
2021/05/15 02:37:26;;;;;;;1.93;1.83;;;13.00;99.90;;;;;;5041333;28;20472;-80
2021/05/15 02:39:52;;;;;;;1.80;1.70;;;12.90;99.90;;;;;;5045585;28;20577;-83
2021/05/15 02:43:01;;;;;;;3.60;1.90;;;12.90;99.90;;;;;;5056359;28;20443;-81
2021/05/15 02:45:36;;;;;;;2.63;1.97;;;12.80;99.90;;;;;;5064292;28;20466;-82
2021/05/15 02:48:25;;;;;;;1.93;1.80;;;12.80;99.90;;;;;;5065720;28;20483;-80
2021/05/15 02:50:56;;;;;;;1.97;1.40;;;12.80;99.90;;;;;;5067052;28;20432;-81
2021/05/15 02:53:27;;;;;;;1.83;1.20;;;12.70;99.90;;;;;;5070065;28;20960;-80
2021/05/15 02:56:08;;;;;;;1.70;1.50;;;12.90;99.90;;;;;;5067270;28;20467;-80
2021/05/15 02:59:02;;;;;;;;;;;;;;;;;;;;;
2021/05/15 03:01:59;;;;;;;1.33;1.23;;;12.90;99.90;;;;;;5052635;28;20448;-81
2021/05/15 03:04:30;;;;;;;2.53;1.27;;;13.10;99.90;;;;;;5052424;28;20510;-81
2021/05/15 03:07:04;;;;;;;2.27;1.60;;;13.20;99.90;;;;;;5051827;28;20444;-81
2021/05/15 03:09:44;;;;;;;1.73;1.60;;;13.10;99.90;;;;;;5058032;28;20460;-81
2021/05/15 03:12:28;;;;;;;3.77;1.83;;;13.00;99.90;;;;;;5064420;28;20540;-81
2021/05/15 03:15:02;;;;;;;3.40;1.70;;;12.90;99.90;;;;;;5065503;28;20429;-81
2021/05/15 03:17:35;;;;;;;1.60;1.50;;;12.90;99.90;;;;;;5060345;28;20459;-81
2021/05/15 03:20:19;;;;;;;2.03;1.80;;;13.00;99.90;;;;;;5064452;28;20436;-80
2021/05/15 03:22:57;;;;;;;1.90;1.70;;;12.90;99.90;;;;;;5066865;28;20448;-82
2021/05/15 03:25:39;;;;;;;1.70;1.60;;;13.00;99.90;;;;;;5065910;28;20424;-79
2021/05/15 03:28:24;;;;;;;1.90;1.80;;;13.10;99.90;;;;;;5065514;28;20448;-81
2021/05/15 03:30:56;;;;;;;1.70;1.60;;;13.10;99.90;;;;;;5063347;28;20429;-81
2021/05/15 03:33:39;;;;;;;2.03;1.90;;;13.20;99.90;;;;;;5061612;28;20424;-79
2021/05/15 03:36:13;;;;;;;2.47;2.27;;;13.30;99.90;;;;;;5057586;28;20433;-79
2021/05/15 03:38:52;;;;;;;2.17;2.07;;;13.20;99.90;;;;;;5052129;28;20767;-79
2021/05/15 03:41:25;;;;;;;2.00;1.90;;;13.10;99.90;;;;;;5053085;28;20499;-80
2021/05/15 03:43:57;;;;;;;2.60;2.40;;;13.10;99.90;;;;;;5053035;28;20432;-80
2021/05/15 03:46:49;;;;;;;2.00;1.90;;;13.20;99.90;;;;;;5055910;28;20467;-82
2021/05/15 03:49:32;;;;;;;2.43;1.90;;;13.20;99.90;;;;;;5062038;28;20424;-82
2021/05/15 03:52:07;;;;;;;2.17;1.97;;;12.90;99.90;;;;;;5049158;28;20448;-81
2021/05/15 03:54:46;;;;;;;1.90;1.80;;;13.10;99.90;;;;;;5046179;28;20442;-79
2021/05/15 03:57:12;;;;;;;2.40;1.93;;;13.20;99.90;;;;;;5045500;28;20469;-80
2021/05/15 03:59:40;;;;;;;2.53;2.33;;;13.10;99.90;;;;;;5043971;28;20450;-81
2021/05/15 04:02:27;;;;;;;2.67;2.47;;;13.20;99.90;;;;;;5047643;28;20535;-82
2021/05/15 04:04:56;;;;;;;3.00;2.80;;;13.30;99.90;;;;;;5037198;28;20422;-83
2021/05/15 04:07:35;;;;;;;2.80;2.60;;;13.20;99.90;;;;;;5050287;28;20956;-80
2021/05/15 04:10:12;;;;;;;2.47;2.27;;;13.10;99.90;;;;;;5069228;28;20576;-81
2021/05/15 04:15:47;;;;;;;2.93;2.73;;;13.00;99.90;;;;;;5057122;28;20501;-80
2021/05/15 04:18:31;;;;;;;4.00;3.70;;;12.90;99.90;;;;;;5057699;28;20468;-81
2021/05/15 04:21:10;;;;;;;2.73;2.53;;;12.80;99.90;;;;;;5063957;28;20447;-81
2021/05/15 04:23:43;;;;;;;3.23;2.70;;;12.80;99.90;;;;;;5065478;28;20526;-81
2021/05/15 04:26:17;;;;;;;2.97;2.77;;;12.80;99.90;;;;;;5067297;28;20441;-81
2021/05/15 04:28:45;;;;;;;3.40;3.10;;;12.80;99.90;;;;;;5068329;28;20429;-81
2021/05/15 04:31:37;;;;;;;3.50;2.60;;;12.70;99.90;;;;;;5064428;28;20523;-81
2021/05/15 04:34:24;;;;;;;3.13;2.50;;;12.70;99.90;;;;;;5055952;28;20451;-80
2021/05/15 04:36:59;;;;;;;4.80;2.77;;;12.80;99.90;;;;;;5067701;28;20436;-83
2021/05/15 04:39:29;;;;;;;3.10;2.60;;;12.80;99.90;;;;;;5069998;28;20419;-81
2021/05/15 04:42:07;;;;;;;3.00;2.80;;;12.90;99.90;;;;;;5062112;28;20530;-81
2021/05/15 04:45:19;;;;;;;;;;;;;;;;;;;;;
2021/05/15 04:47:54;;;;;;;3.10;2.90;;;12.80;99.90;;;;;;5047610;28;20439;-81
2021/05/15 04:50:23;;;;;;;2.90;2.70;;;12.90;99.90;;;;;;5050355;28;20439;-83
2021/05/15 04:52:54;;;;;;;3.00;2.80;;;12.70;99.90;;;;;;5046544;28;20458;-82
2021/05/15 04:55:26;;;;;;;3.30;3.00;;;12.70;99.90;;;;;;5047043;28;21127;-81
2021/05/15 04:57:56;;;;;;;3.10;2.83;;;12.70;99.90;;;;;;5046529;28;20516;-80
2021/05/15 05:00:38;;;;;;;3.90;3.43;;;12.70;99.90;;;;;;5050603;28;20523;-82
2021/05/15 05:03:28;;;;;;;2.97;2.77;;;12.80;99.90;;;;;;5042317;28;20428;-81
2021/05/15 05:05:57;;;;;;;3.00;2.80;;;12.90;99.90;;;;;;5042782;28;20420;-80
2021/05/15 05:08:39;;;;;;;3.90;3.60;;;12.70;99.90;;;;;;5042127;28;20431;-81
2021/05/15 05:11:10;;;;;;;3.23;2.93;;;12.80;99.90;;;;;;5042902;28;20441;-80
2021/05/15 05:13:48;;;;;;;3.90;2.50;;;12.80;99.90;;;;;;5045622;28;20452;-81
2021/05/15 05:16:16;;;;;;;2.63;2.43;;;12.70;99.90;;;;;;5041333;28;20424;-82
2021/05/15 05:19:02;;;;;;;3.20;3.00;;;12.80;99.90;;;;;;5044040;28;20546;-80
2021/05/15 05:21:51;;;;;;;3.10;2.90;;;12.80;99.90;;;;;;5042314;28;20975;-81
2021/05/15 05:24:20;;;;;;;2.33;2.23;;;12.80;99.90;;;;;;5042109;28;20409;-81
2021/05/15 05:26:48;;;;;;;4.23;2.90;;;12.90;99.90;;;;;;5042446;28;20464;-81
2021/05/15 05:29:29;;;;;;;2.50;2.40;;;13.10;99.90;;;;;;5042404;28;20461;-81
2021/05/15 05:32:09;;;;;;;2.80;2.60;;;12.90;99.90;;;;;;5042786;28;20440;-81
2021/05/15 05:34:45;;;;;;;2.87;2.60;;;12.90;99.90;;;;;;5044820;28;20794;-82
2021/05/15 05:37:17;;;;;;;3.13;2.40;;;12.90;99.90;;;;;;5041236;28;20464;-80
2021/05/15 05:39:46;;;;;;;2.33;2.13;;;12.80;99.90;;;;;;5043934;28;20964;-82
2021/05/15 05:42:19;;;;;;;2.23;2.10;;;12.80;99.90;;;;;;5044438;28;20452;-80
2021/05/15 05:44:50;;;;;;;2.40;2.30;;;12.90;99.90;;;;;;5041204;28;20421;-81
2021/05/15 05:47:19;;;;;;;2.80;2.60;;;13.00;99.90;;;;;;5042851;28;20425;-82
2021/05/15 05:49:54;;;;;;;2.50;2.40;;;13.10;99.90;;;;;;5043061;28;20428;-82
2021/05/15 05:52:33;;;;;;;2.70;2.47;;;13.00;99.90;;;;;;5044456;28;20452;-82
2021/05/15 05:55:27;;;;;;;3.60;2.90;;;12.90;99.90;;;;;;5049167;28;20453;-82
2021/05/15 05:58:27;;;;;;;2.67;2.50;;;12.90;99.90;;;;;;5046604;28;20576;-82
2021/05/15 06:01:02;;;;;;;2.63;2.50;;;13.20;99.90;;;;;;5044633;28;20986;-82
2021/05/15 06:03:53;;;;;;;2.70;2.50;;;13.00;99.90;;;;;;5043645;28;20580;-80
2021/05/15 06:06:36;;;;;;;2.87;2.60;;;12.90;99.90;;;;;;5041856;28;20413;-80
2021/05/15 06:09:34;;;;;;;3.23;2.93;;;13.00;99.90;;;;;;5043058;28;20417;-80
2021/05/15 06:15:31;;;;;;;2.83;2.63;;;13.10;99.90;;;;;;5040274;28;20432;-82
2021/05/15 06:18:07;;;;;;;3.07;2.87;;;13.20;99.90;;;;;;5047472;28;22552;-83
2021/05/15 06:20:38;;;;;;;4.07;3.50;;;13.30;99.90;;;;;;5047203;28;20475;-82
2021/05/15 06:23:10;;;;;;;2.83;2.63;;;13.30;99.90;;;;;;5044151;28;21087;-81
2021/05/15 06:25:49;;;;;;;3.23;2.93;;;13.40;99.90;;;;;;5039007;28;20954;-83
2021/05/15 06:28:24;;;;;;;3.20;2.97;;;13.40;99.90;;;;;;5043687;28;20447;-81
2021/05/15 06:31:01;;;;;;;2.83;2.63;;;13.40;99.90;;;;;;5043185;28;20451;-82
2021/05/15 06:33:33;;;;;;;3.23;3.03;;;13.40;99.90;;;;;;5042518;28;20778;-79
2021/05/15 06:36:02;;;;;;;2.60;2.40;;;13.50;99.90;;;;;;5044152;28;20484;-83
2021/05/15 06:38:42;;;;;;;3.23;2.90;;;13.70;99.90;;;;;;5045516;28;20480;-83
2021/05/15 06:41:13;;;;;;;3.17;2.90;;;13.50;99.90;;;;;;5042223;28;20483;-83
2021/05/15 06:43:44;;;;;;;3.73;3.43;;;13.40;99.90;;;;;;5043009;28;20420;-83
2021/05/15 06:46:15;;;;;;;2.90;2.70;;;13.60;99.90;;;;;;5042745;28;20441;-81
2021/05/15 06:49:10;;;;;;;3.20;2.87;;;13.70;99.90;;;;;;5046758;28;20468;-81
2021/05/15 06:51:47;;;;;;;3.27;2.87;;;13.70;99.90;;;;;;5046378;28;20468;-83
2021/05/15 06:54:23;;;;;;;3.40;3.20;;;13.60;99.90;;;;;;5037239;28;20475;-80
2021/05/15 06:57:17;;;;;;;3.87;3.17;;;13.70;99.90;;;;;;5048785;28;20469;-83
2021/05/15 06:59:53;;;;;;;2.83;2.60;;;13.60;99.90;;;;;;5063717;28;20456;-81
2021/05/15 07:02:19;;;;;;;3.50;3.20;;;13.50;99.90;;;;;;5052938;28;20449;-82
2021/05/15 07:04:50;;;;;;;3.07;2.87;;;13.60;99.90;;;;;;5049053;28;20970;-83
2021/05/15 07:07:21;;;;;;;3.13;2.93;;;13.70;99.90;;;;;;5062136;28;20433;-81
2021/05/15 07:10:00;;;;;;;2.70;2.50;;;13.80;99.90;;;;;;5078212;28;20524;-78
2021/05/15 07:13:16;;;;;;;3.23;3.03;;;13.70;99.90;;;;;;5061483;28;20432;-80
2021/05/15 07:15:44;;;;;;;5.50;3.13;;;13.70;99.90;;;;;;5039236;28;20463;-80
2021/05/15 07:18:17;;;;;;;3.63;3.33;;;13.80;99.90;;;;;;5048782;28;20537;-82
2021/05/15 07:20:51;;;;;;;7.60;3.07;;;13.80;99.90;;;;;;5044524;28;21668;-83
2021/05/15 07:23:56;;;;;;;4.20;3.20;;;13.60;99.90;;;;;;5054637;28;20497;-82
2021/05/15 07:26:25;;;;;;;2.53;2.43;;;13.60;99.90;;;;;;5066852;28;20432;-81
2021/05/15 07:29:21;;;;;;;3.77;3.30;;;13.70;99.90;;;;;;5067160;28;20420;-81
2021/05/15 07:32:08;;;;;;;3.17;2.87;;;13.90;99.90;;;;;;5051756;28;20464;-82
2021/05/15 07:34:43;;;;;;;2.23;2.13;;;14.00;99.90;;;;;;5056366;28;20424;-83
2021/05/15 07:37:39;;;;;;;3.60;2.40;;;14.30;99.90;;;;;;5050981;28;20475;-83
2021/05/15 07:40:46;;;;;;;2.90;2.70;;;14.60;99.90;;;;;;5047971;28;20510;-80
2021/05/15 07:43:44;;;;;;;5.40;2.70;;;15.50;98.60;;;;;;5047479;28;20416;-81
2021/05/15 07:46:19;;;;;;;2.33;2.17;;;15.90;97.10;;;;;;5048450;28;20408;-83
2021/05/15 07:48:53;;;;;;;2.90;2.60;;;16.20;95.80;;;;;;5048829;28;20428;-81
2021/05/15 07:51:22;;;;;;;2.90;2.40;;;16.20;95.20;;;;;;5048020;28;20485;-82
2021/05/15 07:54:14;;;;;;;2.60;2.40;;;16.20;94.50;;;;;;5051271;28;20463;-80
2021/05/15 07:57:18;;;;;;;3.07;2.87;;;16.10;94.00;;;;;;5044838;28;20572;-79
2021/05/15 08:03:54;;;;;;;6.10;4.10;;;15.90;94.80;;;;;;4967213;28;20465;-82
2021/05/15 08:06:38;;;;;;;3.30;3.00;;;15.80;95.00;;;;;;4973479;28;20444;-83
2021/05/15 08:09:39;;;;;;;3.13;2.90;;;15.90;94.90;;;;;;4957931;28;20528;-81
2021/05/15 08:12:13;;;;;;;3.00;2.70;;;16.50;94.00;;;;;;4939101;28;20471;-82
2021/05/15 08:18:06;;;;;;;3.93;3.50;;;17.10;91.00;;;;;;4978546;28;20478;-82
2021/05/15 08:20:51;;;;;;;3.50;3.20;;;16.60;91.60;;;;;;4981134;28;20444;-81
2021/05/15 08:23:25;;;;;;;3.57;2.90;;;16.60;92.90;;;;;;4989340;28;20741;-83
2021/05/15 08:25:56;;;;;;;3.27;2.97;;;17.80;91.30;;;;;;4972648;28;20428;-81
2021/05/15 08:28:28;;;;;;;3.30;3.00;;;18.30;86.40;;;;;;4980397;28;20491;-82
2021/05/15 08:31:11;;;;;;;3.60;3.30;;;17.80;87.00;;;;;;4987259;28;20442;-83
2021/05/15 08:33:42;;;;;;;3.20;2.90;;;17.30;87.50;;;;;;4986569;28;20859;-81
2021/05/15 08:36:10;;;;;;;3.90;3.10;;;16.70;90.00;;;;;;4964939;28;20472;-82
2021/05/15 08:38:59;;;;;;;2.90;2.70;;;17.10;90.30;;;;;;4961064;28;20525;-82
2021/05/15 08:41:37;;;;;;;3.27;3.00;;;17.40;88.40;;;;;;4948905;28;20459;-81
2021/05/15 08:44:13;;;;;;;4.00;2.50;;;18.50;82.50;;;;;;4961442;28;20528;-82
2021/05/15 08:46:57;;;;;;;2.30;2.10;;;17.90;81.70;;;;;;4975815;28;20501;-82
2021/05/15 08:49:46;;;;;;;;;;;;;;;;;;;;;
2021/05/15 08:52:22;;;;;;;2.93;2.27;;;19.80;75.50;;;;;;4968790;28;20487;-83
2021/05/15 08:55:35;;;;;;;2.60;2.20;;;18.90;75.30;;;;;;4959825;28;20424;-81
2021/05/15 08:58:41;;;;;;;2.60;2.40;;;19.80;74.70;;;;;;4951871;28;20494;-82
2021/05/15 09:01:20;;;;;;;2.10;2.00;;;20.20;70.40;;;;;;4967204;28;20448;-81
2021/05/15 09:03:51;;;;;;;2.67;2.20;;;20.50;67.70;;;;;;4956274;28;21136;-83
2021/05/15 09:06:50;;;;;;;2.63;2.43;;;19.80;68.20;;;;;;4939868;28;20500;-81
2021/05/15 09:09:37;;;;;;;3.00;2.70;;;18.60;72.30;;;;;;4958484;28;20539;-81
2021/05/15 09:12:32;;;;;;;3.03;2.83;;;18.10;74.60;;;;;;5015717;23;20566;-80
2021/05/15 09:15:16;;;;;;;4.70;3.97;;;18.20;74.70;;;;;;5044911;28;20474;-82
2021/05/15 09:17:59;;;;;;;3.30;3.10;;;18.00;75.50;;;;;;5045135;28;20559;-83
2021/05/15 09:20:33;;;;;;;3.83;3.53;;;17.50;79.30;;;;;;5046820;28;20471;-82
2021/05/15 09:24:09;;;;;;;3.93;3.53;;;16.70;84.80;;;;;;5040871;28;20433;-81
2021/05/15 09:27:07;;;;;;;5.63;4.10;;;15.70;93.70;;;;;;5011178;28;22394;-80
2021/05/15 09:29:55;;;;;;;7.47;4.40;;;15.50;96.80;;;;;;5024463;28;20460;-81
2021/05/15 09:33:10;;;;;;;6.20;4.20;;;15.00;99.40;;;;;;5041437;28;20453;-82
2021/05/15 09:36:22;;;;;;;3.80;3.40;;;15.00;99.90;;;;;;5024936;28;20434;-80
2021/05/15 09:39:12;;;;;;;7.73;3.67;;;15.00;98.60;;;;;;5024697;28;20492;-82
2021/05/15 09:41:59;;;;;;;3.57;3.27;;;15.10;98.80;;;;;;5027540;28;20487;-81
2021/05/15 09:44:52;;;;;;;2.70;2.50;;;15.00;98.60;;;;;;5021905;28;20429;-82
2021/05/15 09:47:59;;;;;;;2.53;2.07;;;14.90;97.80;;;;;;5023759;28;20956;-82
2021/05/15 09:50:43;;;;;;;3.00;2.10;;;15.00;97.40;;;;;;5025216;28;20453;-79
2021/05/15 09:53:52;;;;;;;2.27;2.00;;;15.40;96.30;;;;;;5024612;28;20425;-80
2021/05/15 09:57:23;;;;;;;2.50;2.30;;;15.30;95.20;;;;;;5039766;28;20449;-81
2021/05/15 09:59:53;;;;;;;2.67;2.47;;;15.60;94.50;;;;;;4965068;28;20464;-83
2021/05/15 10:02:55;;;;;;;2.47;2.27;;;15.30;94.70;;;;;;4955081;28;20468;-81
2021/05/15 10:05:29;;;;;;;3.30;3.07;;;15.00;96.40;;;;;;4954032;28;21198;-80
2021/05/15 10:08:11;;;;;;;3.50;3.20;;;14.90;97.90;;;;;;4947843;28;20463;-79
2021/05/15 10:10:55;;;;;;;4.90;4.20;;;14.80;99.00;;;;;;4989530;28;20445;-80
2021/05/15 10:13:29;;;;;;;5.10;4.60;;;14.80;98.80;;;;;;5022168;28;20536;-81
2021/05/15 10:16:11;;;;;;;5.37;4.90;;;14.70;99.90;;;;;;5022751;28;20469;-81
2021/05/15 10:18:44;;;;;;;4.97;4.13;;;14.90;99.90;;;;;;5021685;28;21265;-81
2021/05/15 10:21:20;;;;;;;4.10;2.67;;;15.10;99.40;;;;;;5025058;28;20503;-80
2021/05/15 10:23:58;;;;;;;2.97;2.77;;;15.20;97.60;;;;;;5023316;28;20445;-81
2021/05/15 10:26:33;;;;;;;2.50;2.30;;;15.20;97.40;;;;;;5022960;28;20488;-82
2021/05/15 10:29:14;;;;;;;3.23;2.93;;;15.00;97.00;;;;;;5022918;28;20452;-80
2021/05/15 10:31:52;;;;;;;2.53;2.33;;;14.80;97.60;;;;;;5024907;28;20477;-81
2021/05/15 10:34:31;;;;;;;2.50;2.20;;;14.70;98.30;;;;;;5022609;28;20453;-81
2021/05/15 10:37:20;;;;;;;2.33;2.13;;;14.50;99.50;;;;;;5027356;28;20492;-80
2021/05/15 10:39:53;;;;;;;2.90;2.60;;;14.60;99.90;;;;;;5026100;28;21054;-80
2021/05/15 10:42:43;;;;;;;4.40;2.70;;;14.60;99.90;;;;;;5032011;28;20489;-82
2021/05/15 10:45:35;;;;;;;2.70;2.50;;;14.60;99.90;;;;;;5025608;28;20458;-80
2021/05/15 10:48:24;;;;;;;4.07;3.00;;;14.40;99.90;;;;;;5013801;28;20454;-80
2021/05/15 10:50:56;;;;;;;2.27;2.07;;;14.40;99.90;;;;;;4988178;28;20522;-82
2021/05/15 10:53:30;;;;;;;2.00;1.60;;;14.40;99.90;;;;;;5009912;28;20799;-82
2021/05/15 10:56:31;;;;;;;2.00;1.90;;;14.40;99.90;;;;;;5008690;28;21213;-81
2021/05/15 10:59:10;;;;;;;2.80;2.00;;;14.40;99.90;;;;;;5008126;28;21110;-80
2021/05/15 11:02:16;;;;;;;2.40;2.20;;;14.60;99.90;;;;;;5011496;28;21080;-80
2021/05/15 11:05:11;;;;;;;2.67;1.90;;;14.70;99.90;;;;;;5009579;28;21003;-79
2021/05/15 11:07:48;;;;;;;2.00;1.90;;;15.20;99.50;;;;;;5011555;28;20461;-80
2021/05/15 11:10:34;;;;;;;2.27;2.07;;;15.40;99.60;;;;;;5015062;28;20461;-82
2021/05/15 11:13:13;;;;;;;3.90;2.27;;;15.40;98.70;;;;;;5018186;28;20524;-79
2021/05/15 11:15:55;;;;;;;2.83;2.53;;;15.50;98.90;;;;;;5018187;28;20446;-79
2021/05/15 11:18:33;;;;;;;3.03;2.20;;;15.70;99.10;;;;;;5024301;28;20484;-81
2021/05/15 11:21:07;;;;;;;2.30;2.20;;;15.80;98.20;;;;;;5029004;28;20520;-81
2021/05/15 11:23:46;;;;;;;2.40;2.20;;;15.90;97.70;;;;;;5014146;28;20446;-79
2021/05/15 11:26:47;;;;;;;3.60;2.20;;;15.70;98.30;;;;;;5010736;28;20500;-81
2021/05/15 11:29:35;;;;;;;1.77;1.63;;;16.00;97.70;;;;;;5012046;28;20446;-80
2021/05/15 11:32:30;;;;;;;1.93;1.50;;;16.50;96.40;;;;;;5014265;28;20494;-81
2021/05/15 11:35:14;;;;;;;2.70;1.30;;;16.70;95.60;;;;;;5008814;28;20465;-83
2021/05/15 11:37:42;;;;;;;1.00;1.00;;;17.00;95.00;;;;;;5008270;28;20469;-81
2021/05/15 11:40:21;;;;;;;0.90;0.90;;;16.90;93.60;;;;;;5006979;28;20457;-80
2021/05/15 11:43:06;;;;;;;1.40;0.90;;;16.90;93.10;;;;;;5008813;28;21004;-80
2021/05/15 11:45:42;;;;;;;0.80;0.80;;;16.80;92.80;;;;;;5006188;28;20537;-80
2021/05/15 11:48:33;;;;;;;0.93;0.93;;;16.70;93.00;;;;;;5014071;28;20482;-79
2021/05/15 11:51:23;;;;;;;1.13;1.07;;;16.80;93.00;;;;;;5011449;28;20516;-80
2021/05/15 11:54:36;;;;;;;1.20;1.20;;;17.20;92.20;;;;;;5034381;23;20460;-79
2021/05/15 11:57:09;;;;;;;1.17;1.07;;;17.30;92.00;;;;;;5013247;28;20510;-81
2021/05/15 11:59:39;;;;;;;1.43;1.03;;;17.60;91.00;;;;;;5017903;28;20474;-79
2021/05/15 12:02:16;;;;;;;1.43;0.90;;;17.90;90.00;;;;;;5006865;28;20631;-79
2021/05/15 12:05:03;;;;;;;1.60;0.90;;;18.20;90.10;;;;;;4996857;28;20482;-81
2021/05/15 12:07:35;;;;;;;1.70;1.30;;;18.30;90.20;;;;;;4997260;28;20463;-81
2021/05/15 12:10:18;;;;;;;1.77;1.10;;;18.10;88.60;;;;;;4998541;28;20856;-80
2021/05/15 12:13:08;;;;;;;1.00;0.90;;;17.40;91.10;;;;;;5001279;28;20471;-83
2021/05/15 12:16:03;;;;;;;1.07;0.97;;;17.50;91.00;;;;;;5010116;28;20427;-81
2021/05/15 12:18:42;;;;;;;1.10;1.00;;;17.90;90.70;;;;;;5013626;28;20510;-82
2021/05/15 12:21:42;;;;;;;1.27;1.17;;;18.30;89.80;;;;;;4997823;28;20486;-82
2021/05/15 12:24:31;;;;;;;1.10;1.00;;;18.50;86.30;;;;;;5011927;28;20471;-79
2021/05/15 12:27:30;;;;;;;1.27;0.80;;;18.30;86.40;;;;;;5016065;28;20447;-80
2021/05/15 12:30:37;;;;;;;1.60;0.80;;;18.00;87.50;;;;;;4992422;28;20836;-82
2021/05/15 12:33:22;;;;;;;1.43;1.33;;;17.50;89.40;;;;;;4992322;28;20475;-81
2021/05/15 12:36:07;;;;;;;1.80;1.30;;;17.30;88.30;;;;;;4993576;28;20490;-82
2021/05/15 12:38:58;;;;;;;1.43;1.03;;;16.90;90.20;;;;;;4991508;28;20550;-82
2021/05/15 12:41:33;;;;;;;1.73;0.90;;;16.90;90.40;;;;;;4996788;28;20477;-79
2021/05/15 12:44:21;;;;;;;0.80;0.80;;;16.90;90.30;;;;;;4995140;28;20495;-79
2021/05/15 12:47:09;;;;;;;1.90;1.47;;;16.90;90.60;;;;;;4990586;28;20473;-80
2021/05/15 12:49:50;;;;;;;0.93;0.93;;;16.70;91.30;;;;;;4992642;28;20459;-81
2021/05/15 12:52:20;;;;;;;1.63;1.10;;;16.70;91.20;;;;;;4992513;28;20856;-82
2021/05/15 12:54:52;;;;;;;2.10;1.03;;;16.60;91.50;;;;;;4990470;28;20475;-80
2021/05/15 12:57:34;;;;;;;0.93;0.90;;;16.50;92.00;;;;;;4994480;28;20462;-81
2021/05/15 13:00:10;;;;;;;1.40;1.30;;;16.50;92.00;;;;;;4991467;28;21002;-81
2021/05/15 13:03:04;;;;;;;4.10;2.13;;;16.20;92.30;;;;;;4991521;28;20671;-82
2021/05/15 13:05:55;;;;;;;2.30;1.10;;;16.20;92.30;;;;;;4998748;28;20465;-82
2021/05/15 13:08:33;;;;;;;2.60;1.50;;;16.10;92.50;;;;;;4995383;28;20941;-81
2021/05/15 13:11:16;;;;;;;1.30;1.20;;;15.70;93.90;;;;;;4996403;28;21393;-82
2021/05/15 13:14:00;;;;;;;1.80;1.70;;;15.30;96.10;;;;;;5011548;28;20431;-81
2021/05/15 13:16:37;;;;;;;3.90;3.07;;;15.10;98.10;;;;;;5009034;28;20489;-84
2021/05/15 13:19:22;;;;;;;1.70;1.40;;;15.00;99.70;;;;;;5014178;28;20482;-81
2021/05/15 13:21:55;;;;;;;2.40;2.20;;;15.00;99.50;;;;;;5012265;28;20453;-79
2021/05/15 13:24:53;;;;;;;3.87;2.13;;;15.00;99.90;;;;;;4997217;28;20549;-82
2021/05/15 13:27:47;;;;;;;3.00;2.10;;;15.20;99.90;;;;;;5002561;28;20503;-81
2021/05/15 13:30:19;;;;;;;2.17;1.60;;;15.40;99.90;;;;;;5002332;28;20447;-81
2021/05/15 13:33:07;;;;;;;2.30;2.10;;;15.50;99.00;;;;;;4991904;28;20499;-80
2021/05/15 13:35:49;;;;;;;2.17;1.80;;;15.60;99.80;;;;;;4995590;28;20458;-81
2021/05/15 13:38:36;;;;;;;1.63;1.43;;;15.40;99.90;;;;;;4992757;28;20502;-79
2021/05/15 13:41:31;;;;;;;1.53;1.43;;;15.30;99.30;;;;;;4993067;28;20473;-80
2021/05/15 13:44:11;;;;;;;2.20;1.77;;;15.20;99.90;;;;;;4992587;28;20446;-81
2021/05/15 13:47:05;;;;;;;2.40;1.57;;;15.20;99.90;;;;;;5006323;28;20666;-79
2021/05/15 13:50:18;;;;;;;1.67;1.57;;;15.30;99.60;;;;;;4995432;28;20454;-79
2021/05/15 13:53:05;;;;;;;1.50;1.40;;;15.40;99.50;;;;;;4999069;28;20517;-81
2021/05/15 13:55:42;;;;;;;1.43;1.33;;;15.50;99.20;;;;;;4993651;28;20487;-82
2021/05/15 13:58:34;;;;;;;5.03;1.70;;;15.60;98.80;;;;;;4972629;28;20494;-80
2021/05/15 14:01:21;;;;;;;1.93;1.10;;;15.50;99.30;;;;;;4987586;28;20451;-82
2021/05/15 14:03:51;;;;;;;1.80;1.47;;;15.80;99.70;;;;;;4994035;28;21080;-83
2021/05/15 14:06:32;;;;;;;2.10;1.27;;;15.80;98.80;;;;;;4989454;28;20510;-82
2021/05/15 14:09:42;;;;;;;2.10;1.90;;;15.60;98.40;;;;;;4988837;28;20520;-83
2021/05/15 14:12:52;;;;;;;1.50;1.40;;;15.50;98.80;;;;;;4992896;28;20471;-82
2021/05/15 14:19:14;;;;;;;2.30;1.40;;;15.30;99.60;;;;;;4953435;28;20485;-81
2021/05/15 14:22:00;;;;;;;1.93;1.03;;;15.40;98.70;;;;;;5039102;23;20498;-80
2021/05/15 14:24:45;;;;;;;0.97;0.97;;;15.20;98.20;;;;;;4985285;28;20443;-81
2021/05/15 14:27:53;;;;;;;3.80;1.30;;;15.30;98.30;;;;;;4971100;28;20444;-80